createdAt,value
2019-02-25T00:01:37.653Z,34.80
2019-02-25T00:04:42.622Z,34.70
2019-02-25T00:07:47.624Z,34.70
2019-02-25T00:10:52.615Z,34.40
2019-02-25T00:13:57.628Z,34.90
2019-02-25T00:17:02.706Z,35.10
2019-02-25T00:20:10.032Z,35.00
2019-02-25T00:23:15.118Z,35.10
2019-02-25T00:26:20.274Z,35.10
2019-02-25T00:29:30.459Z,35.40
2019-02-25T00:32:35.398Z,35.30
2019-02-25T00:35:40.398Z,35.40
2019-02-25T00:38:56.195Z,35.30
2019-02-25T00:42:01.500Z,35.40
2019-02-25T00:45:07.039Z,35.20
2019-02-25T00:48:11.969Z,34.50
2019-02-25T00:51:17.143Z,34.60
2019-02-25T00:54:22.056Z,34.80
2019-02-25T00:57:27.122Z,34.50
2019-02-25T01:00:33.781Z,34.50
2019-02-25T01:03:38.837Z,34.50
2019-02-25T01:06:43.847Z,34.50
2019-02-25T01:09:48.708Z,34.50
2019-02-25T01:12:53.732Z,34.10
2019-02-25T01:15:58.862Z,33.90
2019-02-25T01:19:03.854Z,34.10
2019-02-25T01:22:08.844Z,34.40
2019-02-25T01:25:14.116Z,34.40
2019-02-25T01:28:19.208Z,34.40
2019-02-25T01:31:24.149Z,34.40
2019-02-25T01:34:29.300Z,34.50
2019-02-25T01:37:34.246Z,34.40
2019-02-25T01:40:39.390Z,34.90
2019-02-25T01:43:44.408Z,35.10
2019-02-25T01:46:49.675Z,35.30
2019-02-25T01:49:54.783Z,35.70
2019-02-25T01:52:59.796Z,36.10
2019-02-25T01:56:04.855Z,36.70
2019-02-25T01:59:09.998Z,36.90
2019-02-25T02:02:14.847Z,36.80
2019-02-25T02:05:19.879Z,36.90
2019-02-25T02:08:25.013Z,36.80
2019-02-25T02:11:30.398Z,37.00
2019-02-25T02:14:35.454Z,36.80
2019-02-25T02:17:40.472Z,36.80
2019-02-25T02:20:45.318Z,36.70
2019-02-25T02:23:50.378Z,36.50
2019-02-25T02:26:55.454Z,36.80
2019-02-25T02:30:00.596Z,36.60
2019-02-25T02:33:05.446Z,36.40
2019-02-25T02:36:11.717Z,36.40
2019-02-25T02:39:16.954Z,36.40
2019-02-25T02:42:23.165Z,36.40
2019-02-25T02:45:37.692Z,36.50
2019-02-25T02:48:46.610Z,36.40
2019-02-25T02:51:51.742Z,36.20
2019-02-25T02:54:57.195Z,36.40
2019-02-25T02:58:02.261Z,36.60
2019-02-25T03:01:07.409Z,36.70
2019-02-25T03:04:12.420Z,36.70
2019-02-25T03:07:17.678Z,36.60
2019-02-25T03:10:22.610Z,36.50
2019-02-25T03:13:46.393Z,36.50
2019-02-25T03:16:51.363Z,35.90
2019-02-25T03:19:59.366Z,35.90
2019-02-25T03:23:04.309Z,36.10
2019-02-25T03:26:09.447Z,36.30
2019-02-25T03:29:14.531Z,36.50
2019-02-25T03:32:19.542Z,36.50
2019-02-25T03:35:35.467Z,36.50
2019-02-25T03:38:40.442Z,36.60
2019-02-25T03:41:45.347Z,36.90
2019-02-25T03:44:50.505Z,37.00
2019-02-25T03:47:55.450Z,37.30
2019-02-25T03:51:00.583Z,37.50
2019-02-25T03:54:05.530Z,37.50
2019-02-25T03:57:10.665Z,37.70
2019-02-25T04:00:17.912Z,37.90
2019-02-25T04:03:22.797Z,38.40
2019-02-25T04:06:27.678Z,39.00
2019-02-25T04:09:32.799Z,39.40
2019-02-25T04:12:38.012Z,39.30
2019-02-25T04:15:45.033Z,39.20
2019-02-25T04:18:49.855Z,39.20
2019-02-25T04:21:54.786Z,39.40
2019-02-25T04:24:59.850Z,39.50
2019-02-25T04:28:04.841Z,39.40
2019-02-25T04:31:10.163Z,39.60
2019-02-25T04:34:15.113Z,39.80
2019-02-25T04:37:20.185Z,39.20
2019-02-25T04:40:25.283Z,39.30
2019-02-25T04:43:30.279Z,39.20
2019-02-25T04:46:35.355Z,38.90
2019-02-25T04:49:40.349Z,38.60
2019-02-25T04:52:45.257Z,38.50
2019-02-25T04:55:50.181Z,38.70
2019-02-25T04:59:07.945Z,39.10
2019-02-25T05:02:12.992Z,39.30
2019-02-25T05:05:24.547Z,40.00
2019-02-25T05:08:29.618Z,40.20
2019-02-25T05:11:35.441Z,40.70
2019-02-25T05:14:40.599Z,41.10
2019-02-25T05:17:45.844Z,41.30
2019-02-25T05:20:50.797Z,41.50
2019-02-25T05:23:56.850Z,41.70
2019-02-25T05:27:01.795Z,41.90
2019-02-25T05:30:08.665Z,42.60
2019-02-25T05:33:14.042Z,43.00
2019-02-25T05:36:19.060Z,43.60
2019-02-25T05:39:24.039Z,43.60
2019-02-25T05:42:28.970Z,44.00
2019-02-25T05:45:33.967Z,43.00
2019-02-25T05:48:39.083Z,43.00
2019-02-25T05:51:44.235Z,43.10
2019-02-25T05:54:49.180Z,43.10
2019-02-25T05:57:54.113Z,43.10
2019-02-25T06:00:59.004Z,43.20
2019-02-25T06:04:03.999Z,43.20
2019-02-25T06:07:10.495Z,43.00
2019-02-25T06:10:15.630Z,42.80
2019-02-25T06:13:20.861Z,42.70
2019-02-25T06:16:25.784Z,42.00
2019-02-25T06:19:37.602Z,42.00
2019-02-25T06:22:42.612Z,42.10
2019-02-25T06:25:47.776Z,42.20
2019-02-25T06:28:52.685Z,42.30
2019-02-25T06:31:57.853Z,42.30
2019-02-25T06:35:02.776Z,41.80
2019-02-25T06:38:07.801Z,41.60
2019-02-25T06:41:12.893Z,41.70
2019-02-25T06:44:18.030Z,42.00
2019-02-25T06:47:23.117Z,42.50
2019-02-25T06:50:28.282Z,42.50
2019-02-25T06:53:33.273Z,42.30
2019-02-25T06:56:38.513Z,42.20
2019-02-25T06:59:43.503Z,41.90
2019-02-25T07:02:48.460Z,41.60
2019-02-25T07:06:13.549Z,41.60
2019-02-25T07:09:26.600Z,41.10
2019-02-25T07:12:50.399Z,41.10
2019-02-25T07:16:13.387Z,41.40
2019-02-25T07:19:49.393Z,42.10
2019-02-25T07:23:23.251Z,41.50
2019-02-25T07:26:48.085Z,41.70
2019-02-25T07:29:59.101Z,42.00
2019-02-25T07:33:29.173Z,41.90
2019-02-25T07:37:11.087Z,42.00
2019-02-25T07:40:42.986Z,41.10
2019-02-25T07:43:54.734Z,40.40
2019-02-25T07:47:05.332Z,39.40
2019-02-25T07:50:16.146Z,38.60
2019-02-25T07:53:38.416Z,38.40
2019-02-25T07:56:58.497Z,38.20
2019-02-25T08:00:28.413Z,38.10
2019-02-25T08:03:51.147Z,37.50
2019-02-25T08:07:13.583Z,36.20
2019-02-25T08:10:46.803Z,35.70
2019-02-25T08:14:01.631Z,36.00
2019-02-25T08:17:40.831Z,36.80
2019-02-25T08:21:04.958Z,37.00
2019-02-25T08:24:30.177Z,37.00
2019-02-25T08:28:05.037Z,37.10
2019-02-25T08:31:28.596Z,37.00
2019-02-25T08:35:01.569Z,36.30
2019-02-25T08:38:18.197Z,35.80
2019-02-25T08:41:32.999Z,35.60
2019-02-25T08:44:59.683Z,34.60
2019-02-25T08:48:11.957Z,33.50
2019-02-25T08:51:25.800Z,33.60
2019-02-25T08:54:23.837Z,32.20
2019-02-25T08:57:28.785Z,31.80
2019-02-25T09:00:34.113Z,30.50
2019-02-25T09:03:39.249Z,29.60
2019-02-25T09:06:44.200Z,28.80
2019-02-25T09:09:49.144Z,27.80
2019-02-25T09:12:54.283Z,26.00
2019-02-25T09:16:02.474Z,23.50
2019-02-25T09:19:07.508Z,21.00
2019-02-25T09:22:12.537Z,20.60
2019-02-25T09:25:19.148Z,20.80
2019-02-25T09:28:24.123Z,20.80
2019-02-25T09:31:28.958Z,21.30
2019-02-25T09:34:34.815Z,22.20
2019-02-25T09:37:39.741Z,23.30
2019-02-25T09:40:44.769Z,24.80
2019-02-25T09:43:50.019Z,25.70
2019-02-25T09:46:55.945Z,26.80
2019-02-25T09:50:01.031Z,27.70
2019-02-25T09:53:07.321Z,28.30
2019-02-25T09:56:12.615Z,27.70
2019-02-25T09:59:17.940Z,28.50
2019-02-25T10:02:24.778Z,29.20
2019-02-25T10:05:30.265Z,29.70
2019-02-25T10:08:35.468Z,30.60
2019-02-25T10:11:40.771Z,30.90
2019-02-25T10:14:45.755Z,30.10
2019-02-25T10:17:50.945Z,29.60
2019-02-25T10:20:56.053Z,27.30
2019-02-25T10:24:01.086Z,22.80
2019-02-25T10:27:06.211Z,20.20
2019-02-25T10:30:17.548Z,20.70
2019-02-25T10:33:22.549Z,20.50
2019-02-25T10:36:27.634Z,17.30
2019-02-25T10:39:32.619Z,14.90
2019-02-25T10:42:37.835Z,15.20
2019-02-25T10:45:43.409Z,15.50
2019-02-25T10:48:54.328Z,16.70
2019-02-25T10:51:57.768Z,18.20
2019-02-25T10:55:02.828Z,19.20
2019-02-25T10:58:08.452Z,20.30
2019-02-25T11:01:17.588Z,21.90
2019-02-25T11:04:21.775Z,24.10
2019-02-25T11:07:26.833Z,25.80
2019-02-25T11:10:40.545Z,27.50
2019-02-25T11:13:58.918Z,28.70
2019-02-25T11:17:05.101Z,29.30
2019-02-25T11:20:11.013Z,29.30
2019-02-25T11:23:17.638Z,29.50
2019-02-25T11:26:23.804Z,29.70
2019-02-25T11:29:31.144Z,29.80
2019-02-25T11:32:35.982Z,30.10
2019-02-25T11:35:41.525Z,30.50
2019-02-25T11:38:47.575Z,31.10
2019-02-25T11:41:52.397Z,32.20
2019-02-25T11:44:59.893Z,32.20
2019-02-25T11:48:04.430Z,32.40
2019-02-25T11:51:09.585Z,31.20
2019-02-25T11:54:14.659Z,28.80
2019-02-25T11:57:19.548Z,27.60
2019-02-25T12:00:25.620Z,23.80
2019-02-25T12:03:30.591Z,20.30
2019-02-25T12:06:36.076Z,17.90
2019-02-25T12:09:40.946Z,16.00
2019-02-25T12:12:45.911Z,14.10
2019-02-25T12:15:51.075Z,13.50
2019-02-25T12:18:56.225Z,13.00
2019-02-25T12:22:02.153Z,11.80
2019-02-25T12:25:07.901Z,11.90
2019-02-25T12:28:13.245Z,11.80
2019-02-25T12:31:18.387Z,11.10
2019-02-25T12:34:23.558Z,10.70
2019-02-25T12:37:28.549Z,11.40
2019-02-25T12:40:34.102Z,10.80
2019-02-25T12:43:39.295Z,10.50
2019-02-25T12:46:44.241Z,10.90
2019-02-25T12:49:49.242Z,11.50
2019-02-25T12:52:59.393Z,13.00
2019-02-25T12:56:04.129Z,13.60
2019-02-25T12:59:09.250Z,14.00
2019-02-25T13:02:14.293Z,14.80
2019-02-25T13:05:19.472Z,16.30
2019-02-25T13:08:24.483Z,16.40
2019-02-25T13:11:29.808Z,15.80
2019-02-25T13:14:34.852Z,16.60
2019-02-25T13:17:40.071Z,16.80
2019-02-25T13:20:45.088Z,16.30
2019-02-25T13:23:50.176Z,16.60
2019-02-25T13:26:55.018Z,17.20
2019-02-25T13:30:19.253Z,16.00
2019-02-25T13:33:26.940Z,15.40
2019-02-25T13:36:32.161Z,14.80
2019-02-25T13:39:37.616Z,14.00
2019-02-25T13:43:01.312Z,13.90
2019-02-25T13:46:10.746Z,14.60
2019-02-25T13:49:16.322Z,16.00
2019-02-25T13:52:21.317Z,16.10
2019-02-25T13:55:26.429Z,15.30
2019-02-25T13:58:31.399Z,15.10
2019-02-25T14:01:36.312Z,15.30
2019-02-25T14:04:41.134Z,16.50
2019-02-25T14:07:46.578Z,17.90
2019-02-25T14:10:51.522Z,19.00
2019-02-25T14:13:56.671Z,20.00
2019-02-25T14:17:01.994Z,21.10
2019-02-25T14:20:16.068Z,22.40
2019-02-25T14:23:21.086Z,23.60
2019-02-25T14:26:26.316Z,24.50
2019-02-25T14:29:31.427Z,25.60
2019-02-25T14:32:36.519Z,26.60
2019-02-25T14:35:42.070Z,27.50
2019-02-25T14:38:47.149Z,28.40
2019-02-25T14:41:54.568Z,29.50
2019-02-25T14:45:01.305Z,30.90
2019-02-25T14:48:08.181Z,30.80
2019-02-25T14:51:13.221Z,31.10
2019-02-25T14:54:18.557Z,31.60
2019-02-25T14:57:24.817Z,31.60
2019-02-25T15:00:34.361Z,32.10
2019-02-25T15:03:37.665Z,32.60
2019-02-25T15:06:42.903Z,32.80
2019-02-25T15:09:47.765Z,33.30
2019-02-25T15:12:57.066Z,33.70
2019-02-25T15:16:00.852Z,35.20
2019-02-25T15:19:06.146Z,36.50
2019-02-25T15:22:11.079Z,37.90
2019-02-25T15:25:16.230Z,38.00
2019-02-25T15:28:22.527Z,38.70
2019-02-25T15:31:27.686Z,39.00
2019-02-25T15:34:32.826Z,39.30
2019-02-25T15:37:37.856Z,39.40
2019-02-25T15:40:49.767Z,39.40
2019-02-25T15:43:57.829Z,39.60
2019-02-25T15:47:02.783Z,39.80
2019-02-25T15:50:10.560Z,40.30
2019-02-25T15:53:16.291Z,40.50
2019-02-25T15:56:21.493Z,40.70
2019-02-25T15:59:32.060Z,40.50
2019-02-25T16:02:33.193Z,40.40
2019-02-25T16:05:38.872Z,40.30
2019-02-25T16:08:45.281Z,40.50
2019-02-25T16:11:51.613Z,40.80
2019-02-25T16:14:56.887Z,41.10
2019-02-25T16:18:02.576Z,41.30
2019-02-25T16:21:07.953Z,41.00
2019-02-25T16:24:14.101Z,41.20
2019-02-25T16:27:21.171Z,41.80
2019-02-25T16:30:30.541Z,41.80
2019-02-25T16:33:35.236Z,41.70
2019-02-25T16:36:40.078Z,41.80
2019-02-25T16:39:45.202Z,42.00
2019-02-25T16:42:50.175Z,42.30
2019-02-25T16:45:55.343Z,42.50
2019-02-25T16:49:00.401Z,42.70
2019-02-25T16:52:05.446Z,43.00
2019-02-25T16:55:10.515Z,43.00
2019-02-25T16:58:16.336Z,43.80
2019-02-25T17:01:21.253Z,43.40
2019-02-25T17:04:27.995Z,43.70
2019-02-25T17:07:33.184Z,43.80
2019-02-25T17:10:38.379Z,44.00
2019-02-25T17:13:44.673Z,44.30
2019-02-25T17:16:50.120Z,44.30
2019-02-25T17:19:55.419Z,44.70
2019-02-25T17:23:00.402Z,44.90
2019-02-25T17:26:07.363Z,45.10
2019-02-25T17:29:12.559Z,45.20
2019-02-25T17:32:19.509Z,45.30
2019-02-25T17:35:26.648Z,45.60
2019-02-25T17:38:32.224Z,45.80
2019-02-25T17:41:42.594Z,46.20
2019-02-25T17:44:47.736Z,46.40
2019-02-25T17:47:58.314Z,46.70
2019-02-25T17:51:01.423Z,47.10
2019-02-25T17:54:07.600Z,47.40
2019-02-25T17:57:14.232Z,47.80
2019-02-25T18:00:37.406Z,48.10
2019-02-25T18:03:43.865Z,48.20
2019-02-25T18:06:49.257Z,48.40
2019-02-25T18:09:54.326Z,48.60
2019-02-25T18:13:01.140Z,48.90
2019-02-25T18:16:08.004Z,49.10
2019-02-25T18:19:13.956Z,49.40
2019-02-25T18:22:23.508Z,49.70
2019-02-25T18:25:30.139Z,49.90
2019-02-25T18:28:37.469Z,50.20
2019-02-25T18:31:41.950Z,50.50
2019-02-25T18:34:47.177Z,50.60
2019-02-25T18:37:52.516Z,50.50
2019-02-25T18:40:58.642Z,50.70
2019-02-25T18:44:04.913Z,50.90
2019-02-25T18:47:11.003Z,51.10
2019-02-25T18:50:19.933Z,51.40
2019-02-25T18:53:27.074Z,52.30
2019-02-25T18:56:33.656Z,52.80
2019-02-25T18:59:39.565Z,53.40
2019-02-25T19:02:44.829Z,54.60
2019-02-25T19:05:51.038Z,54.20
2019-02-25T19:08:58.157Z,54.60
2019-02-25T19:12:22.048Z,54.50
2019-02-25T19:15:27.450Z,54.40
2019-02-25T19:18:34.486Z,54.80
2019-02-25T19:21:58.149Z,54.70
2019-02-25T19:25:07.560Z,54.60
2019-02-25T19:28:16.557Z,54.80
2019-02-25T19:31:18.501Z,55.40
2019-02-25T19:34:23.464Z,55.70
2019-02-25T19:37:38.235Z,55.60
2019-02-25T19:40:45.896Z,55.70
2019-02-25T19:43:58.908Z,55.70
2019-02-25T19:46:57.003Z,55.70
2019-02-25T19:50:21.181Z,55.80
2019-02-25T19:53:26.293Z,56.10
2019-02-25T19:56:31.639Z,56.40
2019-02-25T19:59:36.682Z,56.70
2019-02-25T20:02:41.852Z,56.70
2019-02-25T20:05:48.486Z,57.00
2019-02-25T20:08:55.918Z,57.00
2019-02-25T20:12:01.830Z,57.20
2019-02-25T20:15:11.361Z,57.20
2019-02-25T20:18:18.156Z,58.20
2019-02-25T20:21:24.666Z,58.10
2019-02-25T20:24:29.861Z,58.80
2019-02-25T20:27:35.129Z,58.20
2019-02-25T20:30:42.876Z,58.20
2019-02-25T20:33:47.985Z,58.40
2019-02-25T20:36:55.439Z,58.70
2019-02-25T20:40:00.733Z,59.30
2019-02-25T20:43:06.217Z,59.20
2019-02-25T20:46:11.098Z,59.00
2019-02-25T20:49:18.092Z,58.90
2019-02-25T20:52:22.838Z,58.70
2019-02-25T20:55:29.431Z,58.70
2019-02-25T20:58:36.067Z,58.90
2019-02-25T21:01:44.060Z,59.30
2019-02-25T21:04:52.247Z,59.80
2019-02-25T21:07:59.832Z,60.40
2019-02-25T21:11:08.584Z,60.80
2019-02-25T21:14:11.481Z,61.10
2019-02-25T21:17:16.420Z,61.90
2019-02-25T21:20:21.840Z,62.00
2019-02-25T21:23:28.204Z,62.00
2019-02-25T21:26:33.988Z,61.90
2019-02-25T21:29:41.237Z,62.00
2019-02-25T21:32:47.522Z,62.00
2019-02-25T21:35:53.710Z,61.70
2019-02-25T21:38:58.672Z,61.50
2019-02-25T21:42:03.759Z,61.50
2019-02-25T21:45:09.273Z,61.10
2019-02-25T21:48:14.440Z,61.10
2019-02-25T21:51:19.434Z,61.30
2019-02-25T21:54:24.468Z,61.20
2019-02-25T21:57:31.312Z,61.10
2019-02-25T22:00:38.610Z,61.30
2019-02-25T22:03:45.834Z,62.50
2019-02-25T22:06:51.203Z,61.60
2019-02-25T22:09:57.402Z,61.60
2019-02-25T22:13:06.700Z,61.70
2019-02-25T22:16:09.291Z,61.70
2019-02-25T22:19:16.335Z,61.80
2019-02-25T22:22:24.144Z,61.90
2019-02-25T22:25:27.837Z,62.00
2019-02-25T22:28:34.788Z,61.80
2019-02-25T22:31:41.910Z,62.30
2019-02-25T22:34:46.368Z,62.50
2019-02-25T22:37:52.765Z,62.60
2019-02-25T22:41:00.391Z,62.50
2019-02-25T22:44:06.297Z,62.60
2019-02-25T22:47:13.688Z,62.60
2019-02-25T22:50:18.557Z,62.90
2019-02-25T22:53:23.602Z,62.60
2019-02-25T22:56:28.883Z,62.60
2019-02-25T22:59:35.524Z,63.00
2019-02-25T23:02:52.286Z,63.10
2019-02-25T23:05:56.960Z,63.10
2019-02-25T23:09:01.945Z,63.50
2019-02-25T23:12:07.067Z,63.70
2019-02-25T23:15:12.380Z,63.60
2019-02-25T23:18:19.307Z,63.20
2019-02-25T23:21:26.477Z,62.70
2019-02-25T23:24:34.639Z,62.70
2019-02-25T23:27:38.900Z,62.70
2019-02-25T23:30:44.155Z,62.70
2019-02-25T23:33:51.112Z,62.70
2019-02-25T23:36:56.290Z,62.80
2019-02-25T23:40:04.466Z,62.60
2019-02-25T23:43:09.687Z,62.50
2019-02-25T23:46:14.597Z,62.40
2019-02-25T23:49:27.122Z,62.40
2019-02-25T23:52:28.077Z,62.10
2019-02-25T23:55:33.018Z,62.10
2019-02-25T23:58:40.371Z,62.10
